createdAt,value
2018-11-03T00:00:39.503Z,15.83
2018-11-03T00:01:13.610Z,11.30
2018-11-03T00:01:47.708Z,12.18
2018-11-03T00:02:21.844Z,12.20
2018-11-03T00:02:55.936Z,13.70
2018-11-03T00:03:30.758Z,12.90
2018-11-03T00:04:04.886Z,10.58
2018-11-03T00:04:39.382Z,12.65
2018-11-03T00:05:14.271Z,15.68
2018-11-03T00:05:48.502Z,15.20
2018-11-03T00:06:23.242Z,16.62
2018-11-03T00:06:57.560Z,11.22
2018-11-03T00:07:31.901Z,12.15
2018-11-03T00:08:06.350Z,11.90
2018-11-03T00:08:40.434Z,10.48
2018-11-03T00:09:14.908Z,8.88
2018-11-03T00:09:49.008Z,13.98
2018-11-03T00:10:23.418Z,12.80
2018-11-03T00:10:57.854Z,10.00
2018-11-03T00:11:32.308Z,15.50
2018-11-03T00:12:06.740Z,11.05
2018-11-03T00:12:40.840Z,13.80
2018-11-03T00:13:14.994Z,10.63
2018-11-03T00:13:49.123Z,17.23
2018-11-03T00:14:23.441Z,14.53
2018-11-03T00:14:57.546Z,8.93
2018-11-03T00:15:31.850Z,12.33
2018-11-03T00:16:06.492Z,13.90
2018-11-03T00:16:40.810Z,12.78
2018-11-03T00:17:14.926Z,9.85
2018-11-03T00:17:49.238Z,15.03
2018-11-03T00:18:23.340Z,13.75
2018-11-03T00:18:57.431Z,12.03
2018-11-03T00:19:31.770Z,12.25
2018-11-03T00:20:06.925Z,17.48
2018-11-03T00:20:41.256Z,12.20
2018-11-03T00:21:15.440Z,12.78
2018-11-03T00:21:49.738Z,14.10
2018-11-03T00:22:23.805Z,13.78
2018-11-03T00:22:57.968Z,10.45
2018-11-03T00:23:32.072Z,11.30
2018-11-03T00:24:06.172Z,11.33
2018-11-03T00:24:40.294Z,13.28
2018-11-03T00:25:14.404Z,11.78
2018-11-03T00:25:48.532Z,15.23
2018-11-03T00:26:22.804Z,15.93
2018-11-03T00:26:56.904Z,13.93
2018-11-03T00:27:31.040Z,12.07
2018-11-03T00:28:05.821Z,12.37
2018-11-03T00:28:39.912Z,12.05
2018-11-03T00:29:14.166Z,13.15
2018-11-03T00:29:48.629Z,9.55
2018-11-03T00:30:23.103Z,9.75
2018-11-03T00:30:57.298Z,12.10
2018-11-03T00:31:31.773Z,17.25
2018-11-03T00:32:05.940Z,10.63
2018-11-03T00:32:40.089Z,14.03
2018-11-03T00:33:14.378Z,16.17
2018-11-03T00:33:48.451Z,11.18
2018-11-03T00:34:22.549Z,13.88
2018-11-03T00:34:56.988Z,14.10
2018-11-03T00:35:31.097Z,15.88
2018-11-03T00:36:06.338Z,10.25
2018-11-03T00:36:40.764Z,12.25
2018-11-03T00:37:14.998Z,16.42
2018-11-03T00:37:50.506Z,13.25
2018-11-03T00:38:28.060Z,13.98
2018-11-03T00:39:03.154Z,11.88
2018-11-03T00:39:38.203Z,16.17
2018-11-03T00:40:14.372Z,12.33
2018-11-03T00:40:48.816Z,15.13
2018-11-03T00:41:23.172Z,15.55
2018-11-03T00:41:57.650Z,16.45
2018-11-03T00:42:32.159Z,13.88
2018-11-03T00:43:06.613Z,12.63
2018-11-03T00:43:41.097Z,17.45
2018-11-03T00:44:15.431Z,17.07
2018-11-03T00:44:49.722Z,15.30
2018-11-03T00:45:24.188Z,12.50
2018-11-03T00:45:58.632Z,12.10
2018-11-03T00:46:33.120Z,14.83
2018-11-03T00:47:07.303Z,20.17
2018-11-03T00:47:42.680Z,9.90
2018-11-03T00:48:17.141Z,11.57
2018-11-03T00:48:51.420Z,14.13
2018-11-03T00:49:25.902Z,11.85
2018-11-03T00:50:00.204Z,13.03
2018-11-03T00:50:34.734Z,10.68
2018-11-03T00:51:09.354Z,14.58
2018-11-03T00:51:43.822Z,14.03
2018-11-03T00:52:18.237Z,11.68
2018-11-03T00:52:52.400Z,10.65
2018-11-03T00:53:26.540Z,13.65
2018-11-03T00:54:01.337Z,17.75
2018-11-03T00:54:35.478Z,12.03
2018-11-03T00:55:10.772Z,10.55
2018-11-03T00:55:45.182Z,11.78
2018-11-03T00:56:19.306Z,10.15
2018-11-03T00:56:53.412Z,15.68
2018-11-03T00:57:27.880Z,22.20
2018-11-03T00:58:02.278Z,9.33
2018-11-03T00:58:36.404Z,13.18
2018-11-03T00:59:10.524Z,12.95
2018-11-03T00:59:44.626Z,13.32
2018-11-03T01:00:19.338Z,13.62
2018-11-03T01:00:53.786Z,11.68
2018-11-03T01:01:27.853Z,11.63
2018-11-03T01:02:01.944Z,12.40
2018-11-03T01:02:36.069Z,10.95
2018-11-03T01:03:10.524Z,11.88
2018-11-03T01:03:44.664Z,10.32
2018-11-03T01:04:18.766Z,12.00
2018-11-03T01:04:52.890Z,20.35
2018-11-03T01:05:27.152Z,12.10
2018-11-03T01:06:02.189Z,12.13
2018-11-03T01:06:36.325Z,12.18
2018-11-03T01:07:10.439Z,12.78
2018-11-03T01:07:45.323Z,13.30
2018-11-03T01:08:19.764Z,15.00
2018-11-03T01:08:54.458Z,12.73
2018-11-03T01:09:28.792Z,10.45
2018-11-03T01:10:03.143Z,15.78
2018-11-03T01:10:37.209Z,13.83
2018-11-03T01:11:11.512Z,9.23
2018-11-03T01:11:45.803Z,12.35
2018-11-03T01:12:19.888Z,13.48
2018-11-03T01:12:53.988Z,11.10
2018-11-03T01:13:28.434Z,10.40
2018-11-03T01:14:02.846Z,13.98
2018-11-03T01:14:36.952Z,9.88
2018-11-03T01:15:13.716Z,12.45
2018-11-03T01:15:47.772Z,11.60
2018-11-03T01:16:21.865Z,13.75
2018-11-03T01:16:56.050Z,11.75
2018-11-03T01:17:30.148Z,15.65
2018-11-03T01:18:04.247Z,13.45
2018-11-03T01:18:38.382Z,12.65
2018-11-03T01:19:12.472Z,13.55
2018-11-03T01:19:46.585Z,13.18
2018-11-03T01:20:20.715Z,12.55
2018-11-03T01:20:55.358Z,10.55
2018-11-03T01:21:29.473Z,13.10
2018-11-03T01:22:03.577Z,13.03
2018-11-03T01:22:37.704Z,12.33
2018-11-03T01:23:11.937Z,16.05
2018-11-03T01:23:46.126Z,14.10
2018-11-03T01:24:20.343Z,10.55
2018-11-03T01:24:54.647Z,16.75
2018-11-03T01:25:28.774Z,15.20
2018-11-03T01:26:02.908Z,12.45
2018-11-03T01:26:37.033Z,19.77
2018-11-03T01:27:11.494Z,13.48
2018-11-03T01:28:26.080Z,12.35
2018-11-03T01:29:00.508Z,16.30
2018-11-03T01:29:34.607Z,11.53
2018-11-03T01:30:10.612Z,13.22
2018-11-03T01:30:44.724Z,13.30
2018-11-03T01:31:18.855Z,17.02
2018-11-03T01:31:52.989Z,17.48
2018-11-03T01:32:27.658Z,16.25
2018-11-03T01:33:01.919Z,14.20
2018-11-03T01:33:36.023Z,15.75
2018-11-03T01:34:10.104Z,12.45
2018-11-03T01:34:44.763Z,13.32
2018-11-03T01:35:18.859Z,15.53
2018-11-03T01:35:52.972Z,15.25
2018-11-03T01:36:27.126Z,13.55
2018-11-03T01:37:01.225Z,17.40
2018-11-03T01:37:35.544Z,13.70
2018-11-03T01:38:09.660Z,14.63
2018-11-03T01:38:44.088Z,12.15
2018-11-03T01:39:18.173Z,13.95
2018-11-03T01:39:52.266Z,15.48
2018-11-03T01:40:26.333Z,12.68
2018-11-03T01:41:00.410Z,16.52
2018-11-03T01:41:34.540Z,21.10
2018-11-03T01:42:09.296Z,13.15
2018-11-03T01:42:44.062Z,14.33
2018-11-03T01:43:18.175Z,14.47
2018-11-03T01:43:52.280Z,12.95
2018-11-03T01:44:26.601Z,11.08
2018-11-03T01:45:01.504Z,12.28
2018-11-03T01:45:35.781Z,13.62
2018-11-03T01:46:09.856Z,13.45
2018-11-03T01:46:44.370Z,12.18
2018-11-03T01:47:18.813Z,12.70
2018-11-03T01:47:53.229Z,13.03
2018-11-03T01:48:27.342Z,14.93
2018-11-03T01:49:01.471Z,16.10
2018-11-03T01:49:35.580Z,18.87
2018-11-03T01:50:11.356Z,13.32
2018-11-03T01:50:45.451Z,15.58
2018-11-03T01:51:19.581Z,11.45
2018-11-03T01:51:53.696Z,13.30
2018-11-03T01:52:28.639Z,16.65
2018-11-03T01:53:03.008Z,13.95
2018-11-03T01:53:37.363Z,14.65
2018-11-03T01:54:11.613Z,13.05
2018-11-03T01:54:46.055Z,14.75
2018-11-03T01:55:20.146Z,15.08
2018-11-03T01:55:54.238Z,16.40
2018-11-03T01:56:28.749Z,12.60
2018-11-03T01:57:02.885Z,14.10
2018-11-03T01:57:37.951Z,18.65
2018-11-03T01:58:12.042Z,17.98
2018-11-03T01:58:46.775Z,13.48
2018-11-03T01:59:20.863Z,11.78
2018-11-03T01:59:54.961Z,18.52
2018-11-03T02:00:29.051Z,16.95
2018-11-03T02:01:03.179Z,13.05
2018-11-03T02:01:37.597Z,14.00
2018-11-03T02:02:11.905Z,12.80
2018-11-03T02:02:45.980Z,12.00
2018-11-03T02:03:20.621Z,15.15
2018-11-03T02:03:54.731Z,13.50
2018-11-03T02:04:29.185Z,12.93
2018-11-03T02:05:03.593Z,11.53
2018-11-03T02:05:37.999Z,13.32
2018-11-03T02:06:12.091Z,12.03
2018-11-03T02:06:46.217Z,10.65
2018-11-03T02:07:20.463Z,11.45
2018-11-03T02:07:54.546Z,14.28
2018-11-03T02:08:29.135Z,12.50
2018-11-03T02:09:04.576Z,14.53
2018-11-03T02:09:39.035Z,15.00
2018-11-03T02:10:13.309Z,12.95
2018-11-03T02:10:47.781Z,13.28
2018-11-03T02:11:21.873Z,12.85
2018-11-03T02:11:56.289Z,10.03
2018-11-03T02:12:30.391Z,15.43
2018-11-03T02:13:04.493Z,10.68
2018-11-03T02:13:38.925Z,13.18
2018-11-03T02:14:12.997Z,10.50
2018-11-03T02:14:47.119Z,13.95
2018-11-03T02:15:21.189Z,12.63
2018-11-03T02:15:55.603Z,15.10
2018-11-03T02:16:29.739Z,15.50
2018-11-03T02:17:03.826Z,14.43
2018-11-03T02:17:38.112Z,17.65
2018-11-03T02:18:12.209Z,17.48
2018-11-03T02:18:46.641Z,18.67
2018-11-03T02:19:20.771Z,14.33
2018-11-03T02:19:55.416Z,16.67
2018-11-03T02:20:29.529Z,12.82
2018-11-03T02:21:04.724Z,17.17
2018-11-03T02:21:38.855Z,14.87
2018-11-03T02:22:12.990Z,19.67
2018-11-03T02:22:47.113Z,16.20
2018-11-03T02:23:21.185Z,12.70
2018-11-03T02:23:55.413Z,21.90
2018-11-03T02:24:29.828Z,16.90
2018-11-03T02:25:03.945Z,12.43
2018-11-03T02:25:38.362Z,16.37
2018-11-03T02:26:19.389Z,14.75
2018-11-03T02:26:53.503Z,13.68
2018-11-03T02:27:27.590Z,15.75
2018-11-03T02:28:01.686Z,16.15
2018-11-03T02:28:36.085Z,13.58
2018-11-03T02:29:10.499Z,13.80
2018-11-03T02:29:44.574Z,13.48
2018-11-03T02:30:18.665Z,18.32
2018-11-03T02:30:53.084Z,15.58
2018-11-03T02:31:27.369Z,20.20
2018-11-03T02:32:01.476Z,15.95
2018-11-03T02:32:35.569Z,15.15
2018-11-03T02:33:09.710Z,15.28
2018-11-03T02:33:43.835Z,17.15
2018-11-03T02:34:17.905Z,15.43
2018-11-03T02:34:52.305Z,24.50
2018-11-03T02:35:26.951Z,13.70
2018-11-03T02:36:01.280Z,14.28
2018-11-03T02:36:35.911Z,16.73
2018-11-03T02:37:10.333Z,17.07
2018-11-03T02:37:44.521Z,18.82
2018-11-03T02:38:18.716Z,17.17
2018-11-03T02:38:52.989Z,17.25
2018-11-03T02:39:27.088Z,18.80
2018-11-03T02:40:01.189Z,15.03
2018-11-03T02:40:35.593Z,16.23
2018-11-03T02:41:09.969Z,16.73
2018-11-03T02:41:44.455Z,13.60
2018-11-03T02:42:18.533Z,15.78
2018-11-03T02:42:52.948Z,14.78
2018-11-03T02:43:27.059Z,14.53
2018-11-03T02:44:01.329Z,15.65
2018-11-03T02:44:36.078Z,15.75
2018-11-03T02:45:10.861Z,15.32
2018-11-03T02:45:45.157Z,19.70
2018-11-03T02:46:19.582Z,16.05
2018-11-03T02:46:53.660Z,18.92
2018-11-03T02:47:28.087Z,14.83
2018-11-03T02:48:02.157Z,13.60
2018-11-03T02:48:36.602Z,16.00
2018-11-03T02:49:10.723Z,16.55
2018-11-03T02:49:45.297Z,18.60
2018-11-03T02:50:19.712Z,16.48
2018-11-03T02:50:54.146Z,16.45
2018-11-03T02:51:28.617Z,16.50
2018-11-03T02:52:02.713Z,16.73
2018-11-03T02:52:36.856Z,18.35
2018-11-03T02:53:10.933Z,18.52
2018-11-03T02:53:45.051Z,17.57
2018-11-03T02:54:20.417Z,22.35
2018-11-03T02:54:54.521Z,18.70
2018-11-03T02:55:29.155Z,15.03
2018-11-03T02:56:03.609Z,16.02
2018-11-03T02:56:38.026Z,14.50
2018-11-03T02:57:12.119Z,20.85
2018-11-03T02:57:46.214Z,20.20
2018-11-03T02:58:20.429Z,19.12
2018-11-03T02:58:54.710Z,20.97
2018-11-03T02:59:28.989Z,21.77
2018-11-03T03:00:03.402Z,19.10
2018-11-03T03:00:37.701Z,19.07
2018-11-03T03:01:11.798Z,18.00
2018-11-03T03:01:46.107Z,18.87
2018-11-03T03:02:20.889Z,17.20
2018-11-03T03:02:55.351Z,19.02
2018-11-03T03:03:29.608Z,17.52
2018-11-03T03:04:04.065Z,18.55
2018-11-03T03:04:38.153Z,16.27
2018-11-03T03:05:12.218Z,14.50
2018-11-03T03:05:46.337Z,19.37
2018-11-03T03:06:20.460Z,17.77
2018-11-03T03:06:54.572Z,15.98
2018-11-03T03:07:29.017Z,17.73
2018-11-03T03:08:03.548Z,15.68
2018-11-03T03:08:38.174Z,20.25
2018-11-03T03:09:12.700Z,17.98
2018-11-03T03:09:46.797Z,19.57
2018-11-03T03:10:20.937Z,16.37
2018-11-03T03:10:55.052Z,21.62
2018-11-03T03:11:29.685Z,20.37
2018-11-03T03:12:04.363Z,17.73
2018-11-03T03:12:38.581Z,17.52
2018-11-03T03:13:12.879Z,15.45
2018-11-03T03:13:47.165Z,13.83
2018-11-03T03:14:22.183Z,15.83
2018-11-03T03:14:56.301Z,16.87
2018-11-03T03:15:30.848Z,27.30
2018-11-03T03:16:05.460Z,14.20
2018-11-03T03:16:39.789Z,15.32
2018-11-03T03:17:14.279Z,17.48
2018-11-03T03:17:48.567Z,13.32
2018-11-03T03:18:22.686Z,16.57
2018-11-03T03:18:57.011Z,13.68
2018-11-03T03:19:31.139Z,12.80
2018-11-03T03:20:06.927Z,12.78
2018-11-03T03:20:41.015Z,13.70
2018-11-03T03:21:15.141Z,14.83
2018-11-03T03:21:49.281Z,17.55
2018-11-03T03:22:23.385Z,15.70
2018-11-03T03:22:57.473Z,19.62
2018-11-03T03:23:31.605Z,15.30
2018-11-03T03:24:05.725Z,16.52
2018-11-03T03:24:39.841Z,15.05
2018-11-03T03:25:14.289Z,18.87
2018-11-03T03:25:48.395Z,17.27
2018-11-03T03:26:22.838Z,17.17
2018-11-03T03:26:56.939Z,18.75
2018-11-03T03:27:31.061Z,18.45
2018-11-03T03:28:06.179Z,17.37
2018-11-03T03:28:40.323Z,23.52
2018-11-03T03:29:14.694Z,14.63
2018-11-03T03:29:49.029Z,17.80
2018-11-03T03:30:23.144Z,16.30
2018-11-03T03:30:57.601Z,18.85
2018-11-03T03:31:31.710Z,24.82
2018-11-03T03:32:06.851Z,20.08
2018-11-03T03:32:42.118Z,20.48
2018-11-03T03:33:16.742Z,20.43
2018-11-03T03:33:50.860Z,22.35
2018-11-03T03:34:25.302Z,20.27
2018-11-03T03:35:02.699Z,21.70
2018-11-03T03:35:39.833Z,23.92
2018-11-03T03:36:14.297Z,23.75
2018-11-03T03:36:48.435Z,20.17
2018-11-03T03:37:22.573Z,23.95
2018-11-03T03:37:56.695Z,22.58
2018-11-03T03:38:30.995Z,21.93
2018-11-03T03:39:10.880Z,31.12
2018-11-03T03:39:44.984Z,32.63
2018-11-03T03:40:19.417Z,26.37
2018-11-03T03:40:54.140Z,18.73
2018-11-03T03:41:28.267Z,23.12
2018-11-03T03:42:04.027Z,26.48
2018-11-03T03:42:38.376Z,23.02
2018-11-03T03:43:12.497Z,22.10
2018-11-03T03:43:47.177Z,24.27
2018-11-03T03:44:24.072Z,17.87
2018-11-03T03:44:58.519Z,22.13
2018-11-03T03:45:32.692Z,21.85
2018-11-03T03:46:06.855Z,21.57
2018-11-03T03:46:41.928Z,23.87
2018-11-03T03:47:16.409Z,19.35
2018-11-03T03:47:50.878Z,21.82
2018-11-03T03:48:24.981Z,18.55
2018-11-03T03:49:01.974Z,21.50
2018-11-03T03:49:36.235Z,19.65
2018-11-03T03:50:11.409Z,21.57
2018-11-03T03:50:46.423Z,25.37
2018-11-03T03:51:20.529Z,19.92
2018-11-03T03:51:55.796Z,19.25
2018-11-03T03:52:30.211Z,25.35
2018-11-03T03:53:04.771Z,18.55
2018-11-03T03:53:38.864Z,24.60
2018-11-03T03:54:13.123Z,19.73
2018-11-03T03:54:47.530Z,18.98
2018-11-03T03:55:22.002Z,21.82
2018-11-03T03:55:56.465Z,21.35
2018-11-03T03:56:30.800Z,19.30
2018-11-03T03:57:06.813Z,23.38
2018-11-03T03:57:41.369Z,21.48
2018-11-03T03:58:15.953Z,20.77
2018-11-03T03:58:50.273Z,19.90
2018-11-03T03:59:24.389Z,17.65
2018-11-03T03:59:58.701Z,16.45
2018-11-03T04:00:34.355Z,20.00
2018-11-03T04:01:09.164Z,19.98
2018-11-03T04:01:43.851Z,17.80
2018-11-03T04:02:18.704Z,20.40
2018-11-03T04:02:52.810Z,18.40
2018-11-03T04:03:27.058Z,21.00
2018-11-03T04:04:01.159Z,21.62
2018-11-03T04:04:35.363Z,16.60
2018-11-03T04:05:09.855Z,28.40
2018-11-03T04:05:43.971Z,19.50
2018-11-03T04:06:18.317Z,25.02
2018-11-03T04:06:52.769Z,16.48
2018-11-03T04:07:27.219Z,18.37
2018-11-03T04:08:01.318Z,19.30
2018-11-03T04:08:35.973Z,20.40
2018-11-03T04:09:11.114Z,20.32
2018-11-03T04:09:46.136Z,20.40
2018-11-03T04:10:20.713Z,16.52
2018-11-03T04:10:55.214Z,16.87
2018-11-03T04:11:29.532Z,18.02
2018-11-03T04:12:03.979Z,15.83
2018-11-03T04:12:38.710Z,17.00
2018-11-03T04:13:12.814Z,21.70
2018-11-03T04:13:47.161Z,27.98
2018-11-03T04:14:21.588Z,20.88
2018-11-03T04:14:55.771Z,14.85
2018-11-03T04:15:30.704Z,16.87
2018-11-03T04:16:05.389Z,21.52
2018-11-03T04:16:41.227Z,17.73
2018-11-03T04:17:15.450Z,14.73
2018-11-03T04:17:49.693Z,16.60
2018-11-03T04:18:24.443Z,18.40
2018-11-03T04:18:59.025Z,16.80
2018-11-03T04:19:33.165Z,14.87
2018-11-03T04:20:07.874Z,17.37
2018-11-03T04:20:42.142Z,17.12
2018-11-03T04:21:20.618Z,16.67
2018-11-03T04:21:54.880Z,18.45
2018-11-03T04:22:29.082Z,14.45
2018-11-03T04:23:03.630Z,15.80
2018-11-03T04:23:37.852Z,15.43
2018-11-03T04:24:12.282Z,21.93
2018-11-03T04:24:46.756Z,15.63
2018-11-03T04:25:21.018Z,16.65
2018-11-03T04:25:55.482Z,18.62
2018-11-03T04:26:30.780Z,20.02
2018-11-03T04:27:05.144Z,19.65
2018-11-03T04:27:39.253Z,16.05
2018-11-03T04:28:13.552Z,18.62
2018-11-03T04:28:47.688Z,16.48
2018-11-03T04:29:21.798Z,17.50
2018-11-03T04:29:55.896Z,17.73
2018-11-03T04:30:30.017Z,20.02
2018-11-03T04:31:04.483Z,19.90
2018-11-03T04:31:38.569Z,19.10
2018-11-03T04:32:12.932Z,20.02
2018-11-03T04:32:47.028Z,20.23
2018-11-03T04:33:21.363Z,19.40
2018-11-03T04:33:55.617Z,15.43
2018-11-03T04:34:29.954Z,20.95
2018-11-03T04:35:04.074Z,15.55
2018-11-03T04:35:38.184Z,19.50
2018-11-03T04:36:12.656Z,20.37
2018-11-03T04:36:46.889Z,17.30
2018-11-03T04:37:21.267Z,17.00
2018-11-03T04:37:55.366Z,19.37
2018-11-03T04:41:01.668Z,15.68
2018-11-03T04:41:36.279Z,11.63
2018-11-03T04:42:10.768Z,16.87
2018-11-03T04:42:51.816Z,14.70
2018-11-03T04:43:25.914Z,14.13
2018-11-03T04:44:00.052Z,20.27
2018-11-03T04:44:34.198Z,18.27
2018-11-03T04:45:09.104Z,18.75
2018-11-03T04:45:43.198Z,21.50
2018-11-03T04:46:17.318Z,16.85
2018-11-03T04:46:51.764Z,18.15
2018-11-03T04:47:25.878Z,17.50
2018-11-03T04:48:00.010Z,18.27
2018-11-03T04:48:34.518Z,22.22
2018-11-03T04:49:08.630Z,19.35
2018-11-03T04:50:48.186Z,16.40
2018-11-03T04:51:22.270Z,19.37
2018-11-03T04:51:56.378Z,20.43
2018-11-03T04:52:30.598Z,24.15
2018-11-03T04:53:05.072Z,21.17
2018-11-03T04:53:39.181Z,20.05
2018-11-03T04:54:13.312Z,18.05
2018-11-03T04:54:47.422Z,22.07
2018-11-03T04:55:21.645Z,25.65
2018-11-03T04:55:56.284Z,26.75
2018-11-03T04:56:30.384Z,27.32
2018-11-03T04:57:04.968Z,26.33
2018-11-03T04:57:39.055Z,21.15
2018-11-03T04:58:13.552Z,22.40
2018-11-03T04:58:47.624Z,25.60
2018-11-03T04:59:21.716Z,20.45
2018-11-03T04:59:55.815Z,22.10
2018-11-03T05:00:30.599Z,23.27
2018-11-03T05:01:04.786Z,24.35
2018-11-03T05:01:39.238Z,19.23
2018-11-03T05:02:13.636Z,20.80
2018-11-03T05:02:47.736Z,21.02
2018-11-03T05:03:22.126Z,25.77
2018-11-03T05:03:56.248Z,20.10
2018-11-03T05:04:30.632Z,30.25
2018-11-03T05:05:04.917Z,26.35
2018-11-03T05:05:39.058Z,25.52
2018-11-03T05:06:13.513Z,24.35
2018-11-03T05:06:48.076Z,21.95
2018-11-03T05:07:22.584Z,22.10
2018-11-03T05:07:56.756Z,22.20
2018-11-03T05:08:31.212Z,23.02
2018-11-03T05:09:08.142Z,23.38
2018-11-03T05:09:42.344Z,27.98
2018-11-03T05:10:16.935Z,28.00
2018-11-03T05:10:51.238Z,27.35
2018-11-03T05:16:31.102Z,20.10
2018-11-03T05:17:06.550Z,22.70
2018-11-03T05:17:40.672Z,24.47
2018-11-03T05:18:14.808Z,25.72
2018-11-03T05:18:48.921Z,26.75
2018-11-03T05:19:23.004Z,23.07
2018-11-03T05:19:57.158Z,27.48
2018-11-03T05:20:31.498Z,26.90
2018-11-03T05:21:05.839Z,25.75
2018-11-03T05:21:40.130Z,30.65
2018-11-03T05:22:14.496Z,26.42
2018-11-03T05:22:48.634Z,22.30
2018-11-03T05:23:23.007Z,29.52
2018-11-03T05:23:57.348Z,25.32
2018-11-03T05:24:31.662Z,26.40
2018-11-03T05:25:05.962Z,29.02
2018-11-03T05:25:40.299Z,25.70
2018-11-03T05:26:14.435Z,24.02
2018-11-03T05:26:48.517Z,30.17
2018-11-03T05:27:23.316Z,22.98
2018-11-03T05:27:57.861Z,27.07
2018-11-03T05:28:31.936Z,26.00
2018-11-03T05:29:06.386Z,26.55
2018-11-03T05:29:40.490Z,30.12
2018-11-03T05:30:14.578Z,30.30
2018-11-03T05:30:48.764Z,27.45
2018-11-03T05:31:22.882Z,27.67
2018-11-03T05:31:57.525Z,29.82
2018-11-03T05:32:31.846Z,27.98
2018-11-03T05:33:06.196Z,24.50
2018-11-03T05:33:40.784Z,28.77
2018-11-03T05:34:14.895Z,25.55
2018-11-03T05:34:48.994Z,26.55
2018-11-03T05:35:23.148Z,29.85
2018-11-03T05:35:57.308Z,30.37
2018-11-03T05:36:31.398Z,23.62
2018-11-03T05:37:06.160Z,30.05
2018-11-03T05:37:40.644Z,26.85
2018-11-03T05:38:14.746Z,24.52
2018-11-03T05:38:48.994Z,24.20
2018-11-03T05:39:23.122Z,25.02
2018-11-03T05:39:57.305Z,29.42
2018-11-03T05:40:31.606Z,29.55
2018-11-03T05:41:06.219Z,25.00
2018-11-03T05:41:40.750Z,23.90
2018-11-03T05:42:15.066Z,31.40
2018-11-03T05:42:49.148Z,22.52
2018-11-03T05:43:23.280Z,29.12
2018-11-03T05:43:57.453Z,24.18
2018-11-03T05:44:31.550Z,28.17
2018-11-03T05:45:05.658Z,30.43
2018-11-03T05:45:40.380Z,26.10
2018-11-03T05:46:14.606Z,25.08
2018-11-03T05:46:49.233Z,24.50
2018-11-03T05:47:23.367Z,26.60
2018-11-03T05:47:57.668Z,28.77
2018-11-03T05:48:31.778Z,24.60
2018-11-03T05:49:06.200Z,23.20
2018-11-03T05:49:40.300Z,25.90
2018-11-03T05:50:14.393Z,27.77
2018-11-03T05:50:48.524Z,24.25
2018-11-03T05:51:29.782Z,25.55
2018-11-03T05:52:03.876Z,27.17
2018-11-03T05:52:38.000Z,29.92
2018-11-03T05:53:12.115Z,28.07
2018-11-03T05:53:46.235Z,31.93
2018-11-03T05:54:20.661Z,30.75
2018-11-03T05:54:54.781Z,29.57
2018-11-03T05:55:28.880Z,27.58
2018-11-03T05:56:03.293Z,31.33
2018-11-03T05:56:37.635Z,30.92
2018-11-03T05:57:11.741Z,31.80
2018-11-03T05:57:46.362Z,27.07
2018-11-03T05:58:20.519Z,30.40
2018-11-03T05:58:55.412Z,36.05
2018-11-03T05:59:30.026Z,33.00
2018-11-03T06:00:04.479Z,34.23
2018-11-03T06:00:38.575Z,40.43
2018-11-03T06:01:12.679Z,37.33
2018-11-03T06:01:46.829Z,39.08
2018-11-03T06:02:20.951Z,36.73
2018-11-03T06:02:56.486Z,39.35
2018-11-03T06:03:30.574Z,39.03
2018-11-03T06:04:05.137Z,49.13
2018-11-03T06:04:39.232Z,39.90
2018-11-03T06:05:13.665Z,38.48
2018-11-03T06:05:47.887Z,46.23
2018-11-03T06:06:21.994Z,48.63
2018-11-03T06:06:56.709Z,44.88
2018-11-03T06:07:30.797Z,46.77
2018-11-03T06:08:05.561Z,40.78
2018-11-03T06:08:40.041Z,35.63
2018-11-03T06:09:14.359Z,34.40
2018-11-03T06:09:48.472Z,31.82
2018-11-03T06:10:23.279Z,34.43
2018-11-03T06:10:57.724Z,31.70
2018-11-03T06:11:32.017Z,27.70
2018-11-03T06:12:06.870Z,31.65
2018-11-03T06:12:40.950Z,32.45
2018-11-03T06:13:15.326Z,31.48
2018-11-03T06:13:49.441Z,34.67
2018-11-03T06:14:23.785Z,29.23
2018-11-03T06:14:57.913Z,31.15
2018-11-03T06:15:32.361Z,32.45
2018-11-03T06:16:06.567Z,36.75
2018-11-03T06:16:40.688Z,32.45
2018-11-03T06:17:14.813Z,34.60
2018-11-03T06:17:48.925Z,30.15
2018-11-03T06:18:23.009Z,32.10
2018-11-03T06:18:57.126Z,31.93
2018-11-03T06:19:31.249Z,28.23
2018-11-03T06:20:06.501Z,30.05
2018-11-03T06:20:40.609Z,29.25
2018-11-03T06:21:14.759Z,28.42
2018-11-03T06:21:48.845Z,27.93
2018-11-03T06:22:23.030Z,31.15
2018-11-03T06:22:57.700Z,33.92
2018-11-03T06:23:31.974Z,30.88
2018-11-03T06:24:06.313Z,29.52
2018-11-03T06:24:40.619Z,29.27
2018-11-03T06:25:14.760Z,35.13
2018-11-03T06:25:49.185Z,28.95
2018-11-03T06:26:23.328Z,32.58
2018-11-03T06:26:57.951Z,27.42
2018-11-03T06:27:32.093Z,34.85
2018-11-03T06:28:06.339Z,32.38
2018-11-03T06:28:40.569Z,33.60
2018-11-03T06:29:14.682Z,28.52
2018-11-03T06:29:48.776Z,31.80
2018-11-03T06:30:22.897Z,28.98
2018-11-03T06:30:57.028Z,30.90
2018-11-03T06:31:31.153Z,31.93
2018-11-03T06:32:06.261Z,31.80
2018-11-03T06:32:40.409Z,28.38
2018-11-03T06:33:14.725Z,28.40
2018-11-03T06:33:48.812Z,30.08
2018-11-03T06:34:23.113Z,30.15
2018-11-03T06:34:57.267Z,31.90
2018-11-03T06:35:31.515Z,27.80
2018-11-03T06:36:05.964Z,29.77
2018-11-03T06:36:40.335Z,32.20
2018-11-03T06:37:14.616Z,31.02
2018-11-03T06:37:48.748Z,37.03
2018-11-03T06:38:23.313Z,32.70
2018-11-03T06:38:57.753Z,34.95
2018-11-03T06:39:32.093Z,33.75
2018-11-03T06:40:06.748Z,29.75
2018-11-03T06:40:41.203Z,33.45
2018-11-03T06:41:17.593Z,30.23
2018-11-03T06:41:51.695Z,30.77
2018-11-03T06:42:26.127Z,33.20
2018-11-03T06:43:00.601Z,41.50
2018-11-03T06:43:34.685Z,33.08
2018-11-03T06:44:09.129Z,32.90
2018-11-03T06:44:43.580Z,32.00
2018-11-03T06:45:17.682Z,31.52
2018-11-03T06:45:51.808Z,30.88
2018-11-03T06:46:25.931Z,32.88
2018-11-03T06:47:00.464Z,31.42
2018-11-03T06:47:35.022Z,30.27
2018-11-03T06:48:09.319Z,32.35
2018-11-03T06:48:43.560Z,34.33
2018-11-03T06:49:19.608Z,32.40
2018-11-03T06:49:53.937Z,33.35
2018-11-03T06:50:28.074Z,33.10
2018-11-03T06:51:02.411Z,36.42
2018-11-03T06:51:36.546Z,34.83
2018-11-03T06:52:11.518Z,35.60
2018-11-03T06:52:45.816Z,31.33
2018-11-03T06:53:19.988Z,31.05
2018-11-03T06:53:54.103Z,30.00
2018-11-03T06:54:28.205Z,32.78
2018-11-03T06:55:02.462Z,28.15
2018-11-03T06:55:36.568Z,29.67
2018-11-03T06:56:11.047Z,30.92
2018-11-03T06:56:45.513Z,33.63
2018-11-03T06:57:21.155Z,28.90
2018-11-03T06:57:55.283Z,27.70
2018-11-03T06:58:29.423Z,29.60
2018-11-03T06:59:03.708Z,31.17
2018-11-03T06:59:37.795Z,27.50
2018-11-03T07:00:12.221Z,27.35
2018-11-03T07:00:46.333Z,35.58
2018-11-03T07:01:20.434Z,31.87
2018-11-03T07:01:54.545Z,26.90
2018-11-03T07:02:28.639Z,27.52
2018-11-03T07:03:02.905Z,32.17
2018-11-03T07:03:37.053Z,31.33
2018-11-03T07:04:11.815Z,27.65
2018-11-03T07:04:45.900Z,27.58
2018-11-03T07:05:20.056Z,29.82
2018-11-03T07:05:54.305Z,30.15
2018-11-03T07:06:28.409Z,26.62
2018-11-03T07:07:02.522Z,25.25
2018-11-03T07:07:36.636Z,29.70
2018-11-03T07:08:11.067Z,31.42
2018-11-03T07:08:45.528Z,26.68
2018-11-03T07:09:19.627Z,31.05
2018-11-03T07:09:53.936Z,27.10
2018-11-03T07:10:28.059Z,26.95
2018-11-03T07:11:02.325Z,30.05
2018-11-03T07:11:37.169Z,27.67
2018-11-03T07:12:11.405Z,24.67
2018-11-03T07:12:46.164Z,28.85
2018-11-03T07:13:20.423Z,23.57
2018-11-03T07:13:54.674Z,25.55
2018-11-03T07:14:28.773Z,28.70
2018-11-03T07:15:02.875Z,27.55
2018-11-03T07:15:36.973Z,31.45
2018-11-03T07:16:11.064Z,28.10
2018-11-03T07:16:45.179Z,26.45
2018-11-03T07:17:19.274Z,22.77
2018-11-03T07:17:53.377Z,25.92
2018-11-03T07:18:27.473Z,26.80
2018-11-03T07:19:01.599Z,25.12
2018-11-03T07:19:35.697Z,31.68
2018-11-03T07:20:11.845Z,24.60
2018-11-03T07:20:45.951Z,31.27
2018-11-03T07:21:20.056Z,30.40
2018-11-03T07:21:54.671Z,26.10
2018-11-03T07:22:28.796Z,29.20
2018-11-03T07:23:02.929Z,28.95
2018-11-03T07:23:37.249Z,28.35
2018-11-03T07:24:11.391Z,26.15
2018-11-03T07:24:45.484Z,29.05
2018-11-03T07:25:19.805Z,28.92
2018-11-03T07:25:53.942Z,25.50
2018-11-03T07:26:28.062Z,25.70
2018-11-03T07:27:02.161Z,25.35
2018-11-03T07:27:36.262Z,25.48
2018-11-03T07:28:10.700Z,28.10
2018-11-03T07:28:44.857Z,24.37
2018-11-03T07:29:19.216Z,27.30
2018-11-03T07:29:53.584Z,28.50
2018-11-03T07:30:27.815Z,25.65
2018-11-03T07:31:02.100Z,25.05
2018-11-03T07:31:36.755Z,24.85
2018-11-03T07:32:11.103Z,25.60
2018-11-03T07:32:45.625Z,22.73